createdAt,value
2023-04-03T00:04:43.546Z,21.4
2023-04-03T00:10:34.041Z,21.4
2023-04-03T00:16:25.079Z,21.4
2023-04-03T00:22:18.105Z,21.4
2023-04-03T00:28:09.069Z,21.4
2023-04-03T00:34:00.955Z,21.4
2023-04-03T00:39:37.504Z,21.4
2023-04-03T00:45:29.280Z,21.3
2023-04-03T00:51:05.586Z,21.3
2023-04-03T00:56:41.266Z,21.3
2023-04-03T01:02:33.597Z,21.3
2023-04-03T01:08:25.000Z,21.3
2023-04-03T01:14:16.905Z,21.3
2023-04-03T01:20:08.135Z,21.3
2023-04-03T01:25:59.549Z,21.3
2023-04-03T01:31:51.123Z,21.4
2023-04-03T01:37:42.845Z,21.8
2023-04-03T01:43:33.914Z,22.3
2023-04-03T01:49:25.368Z,23
2023-04-03T01:55:16.716Z,23.8
2023-04-03T02:01:08.572Z,24.8
2023-04-03T02:07:02.091Z,25.9
2023-04-03T02:12:54.287Z,27
2023-04-03T02:18:45.913Z,28.1
2023-04-03T02:24:36.685Z,29.2
2023-04-03T02:30:27.730Z,30.3
2023-04-03T02:36:03.935Z,31.2
2023-04-03T02:41:55.337Z,31.8
2023-04-03T02:47:46.926Z,32.1
2023-04-03T02:53:38.925Z,32.4
2023-04-03T02:59:32.010Z,32.5
2023-04-03T03:05:08.950Z,32.6
2023-04-03T03:10:59.474Z,32.6
2023-04-03T03:16:51.288Z,32.7
2023-04-03T03:22:43.055Z,32.7
2023-04-03T03:28:33.915Z,32.7
2023-04-03T03:34:25.994Z,32.7
2023-04-03T03:40:18.138Z,32.7
2023-04-03T03:46:11.176Z,32.7
2023-04-03T03:51:31.729Z,32.7
2023-04-03T03:57:23.595Z,32.7
2023-04-03T04:03:16.142Z,32.7
2023-04-03T04:09:08.207Z,32.7
2023-04-03T04:14:58.987Z,32.7
2023-04-03T04:20:19.602Z,32.7
2023-04-03T04:26:10.335Z,32.7
2023-04-03T04:32:01.516Z,32.7
2023-04-03T04:37:53.226Z,32.6
2023-04-03T04:43:44.451Z,32.6
2023-04-03T04:49:38.440Z,32.6
2023-04-03T04:55:36.635Z,32.6
2023-04-03T05:01:29.354Z,32.6
2023-04-03T05:07:22.354Z,32.6
2023-04-03T05:12:57.727Z,32.6
2023-04-03T05:18:49.336Z,32.6
2023-04-03T05:24:40.251Z,32.5
2023-04-03T05:30:33.044Z,32.5
2023-04-03T05:36:26.173Z,32.5
2023-04-03T05:42:19.163Z,32.5
2023-04-03T05:48:12.922Z,32.4
2023-04-03T05:54:04.882Z,32.4
2023-04-03T05:59:57.518Z,32.4
2023-04-03T06:05:52.761Z,32.4
2023-04-03T06:11:45.570Z,32.4
2023-04-03T06:17:36.860Z,32.4
2023-04-03T06:23:28.223Z,32.4
2023-04-03T06:29:19.734Z,32.4
2023-04-03T06:35:13.949Z,32.3
2023-04-03T06:41:05.432Z,32.3
2023-04-03T06:46:58.591Z,32.3
2023-04-03T06:52:51.495Z,32.3
2023-04-03T06:58:42.916Z,32.3
2023-04-03T07:04:35.733Z,32.2
2023-04-03T07:10:27.614Z,32.3
2023-04-03T07:16:18.797Z,32.2
2023-04-03T07:22:11.019Z,32.1
2023-04-03T07:28:08.379Z,32.1
2023-04-03T07:34:00.291Z,32.1
2023-04-03T07:39:52.216Z,32.1
2023-04-03T07:45:43.541Z,32.1
2023-04-03T07:51:19.819Z,32.1
2023-04-03T07:57:12.738Z,41.7
2023-04-03T08:02:49.898Z,40.4
2023-04-03T08:08:57.057Z,38.6
2023-04-03T08:14:49.168Z,37.3
2023-04-03T08:20:32.494Z,36.4
2023-04-03T08:26:37.287Z,35.6
2023-04-03T08:32:14.313Z,35.1
2023-04-03T08:38:06.147Z,34.6
2023-04-03T08:43:58.551Z,40.3
2023-04-03T08:49:52.368Z,38.1
2023-04-03T08:55:49.898Z,36.8
2023-04-03T09:01:42.507Z,35.9
2023-04-03T09:07:36.072Z,35.3
2023-04-03T09:13:28.347Z,34.8
2023-04-03T09:19:34.225Z,34.4
2023-04-03T09:25:32.211Z,33.9
2023-04-03T09:31:34.372Z,40.1
2023-04-03T09:37:43.184Z,37.9
2023-04-03T09:43:28.532Z,36.5
2023-04-03T09:49:30.696Z,35.3
2023-04-03T09:55:24.624Z,34.3
2023-04-03T10:01:29.176Z,41.6
2023-04-03T10:07:36.742Z,41.4
2023-04-03T10:13:45.270Z,41.6
2023-04-03T10:19:56.777Z,40.9
2023-04-03T10:25:56.723Z,40
2023-04-03T10:31:51.392Z,39.2
2023-04-03T10:37:51.481Z,38.6
2023-04-03T10:43:56.399Z,38.3
2023-04-03T10:49:36.001Z,38.1
2023-04-03T10:55:35.058Z,38.1
2023-04-03T11:01:39.950Z,37.9
2023-04-03T11:07:20.798Z,37.7
2023-04-03T11:12:57.906Z,37.1
2023-04-03T11:18:48.101Z,36.6
2023-04-03T11:24:37.342Z,35.9
2023-04-03T11:30:23.266Z,34.6
2023-04-03T11:36:07.427Z,33.4
2023-04-03T11:42:03.454Z,32.8
2023-04-03T11:47:48.984Z,32.2
2023-04-03T11:54:23.961Z,31.7
2023-04-03T12:01:04.331Z,31.3
2023-04-03T12:07:47.615Z,31
2023-04-03T12:14:07.090Z,30.8
2023-04-03T12:20:37.714Z,30.5
2023-04-03T12:26:51.808Z,30.4
2023-04-03T12:33:12.292Z,30.3
2023-04-03T12:39:47.952Z,30.1
2023-04-03T12:46:15.938Z,30
2023-04-03T12:52:28.574Z,29.9
2023-04-03T12:58:54.452Z,29.8
2023-04-03T13:05:20.239Z,29.7
2023-04-03T13:11:47.994Z,29.6
2023-04-03T13:18:18.313Z,29.4
2023-04-03T13:24:55.412Z,29.3
2023-04-03T13:31:07.950Z,29.2
2023-04-03T13:36:58.195Z,29.1
2023-04-03T13:42:43.511Z,29
2023-04-03T13:48:39.079Z,28.9
2023-04-03T13:54:23.197Z,28.8
2023-04-03T14:00:09.291Z,28.7
2023-04-03T14:05:30.408Z,28.6
2023-04-03T14:11:15.789Z,28.5
2023-04-03T14:17:05.688Z,28.4
2023-04-03T14:22:46.506Z,28.3
2023-04-03T14:28:23.412Z,28.3
2023-04-03T14:34:10.662Z,28.2
2023-04-03T14:39:47.567Z,28.1
2023-04-03T14:45:30.463Z,28.1
2023-04-03T14:51:43.658Z,28.1
2023-04-03T14:57:32.873Z,28
2023-04-03T15:03:10.404Z,27.9
2023-04-03T15:08:49.940Z,27.9
2023-04-03T15:14:35.129Z,27.9
2023-04-03T15:31:04.681Z,27.8
2023-04-03T15:37:07.183Z,27.8
2023-04-03T15:42:43.304Z,27.7
2023-04-03T15:48:19.142Z,27.7
2023-04-03T15:54:10.849Z,27.6
2023-04-03T15:59:47.161Z,27.6
2023-04-03T16:05:26.032Z,27.6
2023-04-03T16:11:02.427Z,27.6
2023-04-03T16:16:53.971Z,27.5
2023-04-03T16:22:15.325Z,27.5
2023-04-03T16:27:52.567Z,27.5
2023-04-03T16:33:46.918Z,27.4
2023-04-03T16:39:28.849Z,27.4
2023-04-03T16:45:24.495Z,27.4
2023-04-03T16:51:19.788Z,27.4
2023-04-03T16:56:58.352Z,27.3
2023-04-03T17:02:55.759Z,27.3
2023-04-03T17:08:51.654Z,27.3
2023-04-03T17:14:50.640Z,27.3
2023-04-03T17:20:46.074Z,27.2
2023-04-03T17:26:39.903Z,27.2
2023-04-03T17:32:19.816Z,27.2
2023-04-03T17:38:17.822Z,27.1
2023-04-03T17:44:14.374Z,27.1
2023-04-03T17:50:13.352Z,27.1
2023-04-03T17:56:12.619Z,27.1
2023-04-03T18:02:12.533Z,27.1
2023-04-03T18:07:55.446Z,27
2023-04-03T18:19:56.145Z,27
2023-04-03T18:25:56.731Z,26.9
2023-04-03T18:32:01.636Z,26.8
2023-04-03T18:38:02.955Z,26.8
2023-04-03T18:43:46.623Z,26.7
2023-04-03T18:49:47.462Z,26.7
2023-04-03T18:55:48.037Z,26.6
2023-04-03T19:01:49.431Z,26.6
2023-04-03T19:07:50.225Z,26.5
2023-04-03T19:14:10.054Z,26.5
2023-04-03T19:20:16.239Z,26.5
2023-04-03T19:26:17.090Z,26.4
2023-04-03T19:32:17.270Z,26.4
2023-04-03T19:38:16.655Z,26.4
2023-04-03T19:44:09.529Z,26.4
2023-04-03T19:50:13.524Z,26.3
2023-04-03T19:56:05.097Z,26.3
2023-04-03T20:02:12.616Z,26.3
2023-04-03T20:08:04.767Z,26.3
2023-04-03T20:13:57.352Z,26.3
2023-04-03T20:19:50.710Z,26.2
2023-04-03T20:26:09.904Z,26.2
2023-04-03T20:31:54.339Z,26.1
2023-04-03T20:37:44.053Z,26.1
2023-04-03T20:43:37.541Z,26.1
2023-04-03T20:49:40.628Z,26.1
2023-04-03T20:55:32.488Z,26.1
2023-04-03T21:01:20.006Z,26
2023-04-03T21:07:16.368Z,26
2023-04-03T21:13:09.898Z,26
2023-04-03T21:19:01.308Z,25.9
2023-04-03T21:24:53.452Z,25.9
2023-04-03T21:30:45.745Z,25.9
2023-04-03T21:36:37.738Z,25.9
2023-04-03T21:42:13.924Z,25.9
2023-04-03T21:48:07.056Z,25.9
2023-04-03T21:53:59.165Z,25.8
2023-04-03T21:59:51.397Z,25.8
2023-04-03T22:05:55.188Z,25.8
2023-04-03T22:11:46.696Z,25.8
2023-04-03T22:17:22.735Z,25.8
2023-04-03T22:23:15.103Z,25.8
2023-04-03T22:29:05.795Z,25.7
2023-04-03T22:34:57.829Z,25.7
2023-04-03T22:40:33.855Z,25.7
2023-04-03T22:46:14.607Z,25.6
2023-04-03T22:52:06.697Z,25.6
2023-04-03T22:58:04.482Z,25.6
2023-04-03T23:03:41.138Z,25.6
2023-04-03T23:09:33.283Z,25.6
2023-04-03T23:15:10.166Z,25.6
2023-04-03T23:20:46.526Z,25.6
2023-04-03T23:26:38.341Z,25.5
2023-04-03T23:32:30.022Z,25.5
2023-04-03T23:38:06.308Z,25.5
2023-04-03T23:43:59.600Z,25.5
2023-04-03T23:49:36.680Z,25.4
2023-04-03T23:55:13.080Z,25.4
